createdAt,value
2024-02-15T00:00:17.001Z,98803.34
2024-02-15T00:05:39.334Z,98801.97
2024-02-15T00:08:11.422Z,98800.59
2024-02-15T00:10:44.021Z,98795.44
2024-02-15T00:13:16.102Z,98796.72
2024-02-15T00:15:49.836Z,98803.34
2024-02-15T00:18:22.726Z,98797.94
2024-02-15T00:20:56.093Z,98801.81
2024-02-15T00:23:28.645Z,98798.53
2024-02-15T00:26:01.934Z,98803.34
2024-02-15T00:28:35.559Z,98808.34
2024-02-15T00:31:09.469Z,98805.69
2024-02-15T00:33:42.041Z,98808.78
2024-02-15T00:36:15.850Z,98817.47
2024-02-15T00:38:48.029Z,98812.66
2024-02-15T00:41:22.542Z,98806.31
2024-02-15T00:43:54.565Z,98804.91
2024-02-15T00:46:30.395Z,98794.22
2024-02-15T00:49:02.570Z,98804.47
2024-02-15T00:51:37.372Z,98812.34
2024-02-15T00:54:09.559Z,98801.50
2024-02-15T00:59:31.986Z,98797.47
2024-02-15T01:02:04.493Z,98802.09
2024-02-15T01:04:36.940Z,98799.63
2024-02-15T01:07:09.443Z,98802.09
2024-02-15T01:09:41.951Z,98801.41
2024-02-15T01:12:14.228Z,98796.16
2024-02-15T01:14:46.642Z,98802.97
2024-02-15T01:17:19.129Z,98798.97
2024-02-15T01:19:51.210Z,98801.91
2024-02-15T01:22:28.412Z,98791.22
2024-02-15T01:25:00.715Z,98790.47
2024-02-15T01:27:32.976Z,98785.22
2024-02-15T01:30:05.848Z,98789.09
2024-02-15T01:32:38.590Z,98789.69
2024-02-15T01:35:11.221Z,98791.38
2024-02-15T01:37:43.720Z,98785.22
2024-02-15T01:40:17.164Z,98795.41
2024-02-15T01:42:51.220Z,98787.25
2024-02-15T01:45:23.702Z,98793.56
2024-02-15T01:47:57.314Z,98794.22
2024-02-15T01:50:30.151Z,98785.81
2024-02-15T01:53:05.146Z,98782.84
2024-02-15T01:55:38.856Z,98776.44
2024-02-15T01:58:11.049Z,98784.94
2024-02-15T02:00:44.148Z,98777.19
2024-02-15T02:03:16.668Z,98777.00
2024-02-15T02:05:49.079Z,98772.78
2024-02-15T02:08:21.065Z,98768.94
2024-02-15T02:10:53.663Z,98770.63
2024-02-15T02:13:25.932Z,98775.44
2024-02-15T02:15:57.879Z,98770.47
2024-02-15T02:18:30.437Z,98770.31
2024-02-15T02:21:02.566Z,98758.78
2024-02-15T02:23:35.530Z,98761.59
2024-02-15T02:26:11.212Z,98752.34
2024-02-15T02:28:44.115Z,98750.38
2024-02-15T02:31:16.564Z,98746.47
2024-02-15T02:33:54.050Z,98754.50
2024-02-15T02:36:27.778Z,98752.16
2024-02-15T02:39:02.458Z,98748.28
2024-02-15T02:41:34.779Z,98747.28
2024-02-15T02:44:07.296Z,98751.50
2024-02-15T02:46:39.421Z,98747.25
2024-02-15T02:49:13.047Z,98760.34
2024-02-15T02:51:46.195Z,98755.78
2024-02-15T02:54:18.665Z,98753.41
2024-02-15T02:56:51.122Z,98750.63
2024-02-15T02:59:23.357Z,98738.97
2024-02-15T03:01:58.455Z,98739.09
2024-02-15T03:04:31.339Z,98735.38
2024-02-15T03:07:04.005Z,98741.03
2024-02-15T03:09:38.219Z,98733.09
2024-02-15T03:12:10.888Z,98726.78
2024-02-15T03:14:42.952Z,98728.63
2024-02-15T03:17:15.394Z,98732.28
2024-02-15T03:19:50.003Z,98729.53
2024-02-15T03:22:25.833Z,98733.25
2024-02-15T03:24:58.897Z,98729.22
2024-02-15T03:27:30.880Z,98730.88
2024-02-15T03:30:05.690Z,98733.63
2024-02-15T03:32:38.271Z,98725.53
2024-02-15T03:35:10.814Z,98728.88
2024-02-15T03:37:42.882Z,98731.84
2024-02-15T03:40:15.795Z,98733.97
2024-02-15T03:42:48.020Z,98741.31
2024-02-15T03:45:21.567Z,98741.50
2024-02-15T03:47:54.546Z,98743.72
2024-02-15T03:50:26.641Z,98738.59
2024-02-15T03:53:01.306Z,98742.09
2024-02-15T03:55:34.482Z,98741.31
2024-02-15T03:58:10.164Z,98738.97
2024-02-15T04:00:42.227Z,98734.34
2024-02-15T04:03:15.093Z,98738.31
2024-02-15T04:05:47.148Z,98734.69
2024-02-15T04:08:20.342Z,98737.91
2024-02-15T04:10:53.710Z,98734.47
2024-02-15T04:13:26.547Z,98733.72
2024-02-15T04:15:59.193Z,98735.56
2024-02-15T04:18:34.182Z,98740.16
2024-02-15T04:21:08.624Z,98735.41
2024-02-15T04:23:42.511Z,98743.16
2024-02-15T04:26:14.940Z,98738.97
2024-02-15T04:28:53.722Z,98733.09
2024-02-15T04:31:28.946Z,98736.78
2024-02-15T04:34:02.210Z,98723.22
2024-02-15T04:36:35.347Z,98720.59
2024-02-15T04:39:08.043Z,98711.66
2024-02-15T04:41:40.297Z,98717.19
2024-02-15T04:44:13.290Z,98709.28
2024-02-15T04:46:46.782Z,98703.84
2024-02-15T04:49:20.279Z,98705.00
2024-02-15T04:51:52.754Z,98708.00
2024-02-15T04:54:25.840Z,98708.78
2024-02-15T04:56:58.248Z,98698.25
2024-02-15T04:59:31.909Z,98694.38
2024-02-15T05:02:03.969Z,98698.66
2024-02-15T05:04:37.740Z,98694.78
2024-02-15T05:07:16.465Z,98695.78
2024-02-15T05:09:49.255Z,98684.34
2024-02-15T05:12:25.652Z,98689.53
2024-02-15T05:14:58.637Z,98686.63
2024-02-15T05:17:31.097Z,98683.41
2024-02-15T05:20:11.541Z,98691.63
2024-02-15T05:22:51.147Z,98682.69
2024-02-15T05:25:25.719Z,98683.88
2024-02-15T05:27:59.184Z,98675.16
2024-02-15T05:30:33.931Z,98677.16
2024-02-15T05:33:06.821Z,98679.81
2024-02-15T05:35:41.827Z,98673.19
2024-02-15T05:38:16.515Z,98673.00
2024-02-15T05:40:49.961Z,98676.47
2024-02-15T05:43:21.919Z,98669.88
2024-02-15T05:45:54.388Z,98671.97
2024-02-15T05:48:29.067Z,98676.16
2024-02-15T05:51:02.132Z,98674.81
2024-02-15T05:53:36.983Z,98668.28
2024-02-15T05:56:13.720Z,98669.91
2024-02-15T05:58:45.697Z,98667.16
2024-02-15T06:01:18.215Z,98662.47
2024-02-15T06:03:50.374Z,98654.91
2024-02-15T06:06:23.228Z,98651.97
2024-02-15T06:08:59.183Z,98644.97
2024-02-15T06:11:38.648Z,98634.03
2024-02-15T06:14:10.706Z,98637.34
2024-02-15T06:16:45.681Z,98650.91
2024-02-15T06:19:17.945Z,98637.56
2024-02-15T06:21:50.659Z,98650.91
2024-02-15T06:24:22.708Z,98649.34
2024-02-15T06:27:01.357Z,98640.44
2024-02-15T06:29:51.773Z,98632.31
2024-02-15T06:32:43.381Z,98645.38
2024-02-15T06:35:35.662Z,98632.66
2024-02-15T06:38:26.541Z,98634.25
2024-02-15T06:40:59.456Z,98638.47
2024-02-15T06:43:31.931Z,98633.38
2024-02-15T06:46:07.463Z,98624.78
2024-02-15T06:48:45.679Z,98630.25
2024-02-15T06:51:17.888Z,98623.19
2024-02-15T06:53:51.038Z,98624.94
2024-02-15T06:56:23.843Z,98621.69
2024-02-15T06:58:57.016Z,98618.19
2024-02-15T07:01:29.583Z,98614.00
2024-02-15T07:04:04.695Z,98603.50
2024-02-15T07:06:38.557Z,98608.47
2024-02-15T07:09:12.334Z,98609.25
2024-02-15T07:11:46.198Z,98611.75
2024-02-15T07:14:21.129Z,98616.22
2024-02-15T07:16:53.606Z,98608.47
2024-02-15T07:19:28.896Z,98606.81
2024-02-15T07:22:01.276Z,98605.13
2024-02-15T07:24:33.824Z,98605.56
2024-02-15T07:27:06.824Z,98610.34
2024-02-15T07:29:39.352Z,98610.53
2024-02-15T07:32:13.305Z,98606.75
2024-02-15T07:34:47.052Z,98606.31
2024-02-15T07:37:19.006Z,98597.31
2024-02-15T07:39:51.469Z,98594.38
2024-02-15T07:42:26.565Z,98598.53
2024-02-15T07:44:59.163Z,98595.56
2024-02-15T07:47:32.769Z,98586.13
2024-02-15T07:50:08.218Z,98591.63
2024-02-15T07:52:40.408Z,98592.25
2024-02-15T07:55:13.404Z,98583.72
2024-02-15T07:57:45.402Z,98589.47
2024-02-15T08:00:18.439Z,98593.03
2024-02-15T08:02:50.574Z,98604.16
2024-02-15T08:05:23.151Z,98602.59
2024-02-15T08:07:58.767Z,98607.81
2024-02-15T08:10:31.533Z,98610.63
2024-02-15T08:13:03.608Z,98619.19
2024-02-15T08:15:36.453Z,98618.16
2024-02-15T08:18:10.799Z,98612.22
2024-02-15T08:20:46.151Z,98601.72
2024-02-15T08:23:18.507Z,98605.44
2024-02-15T08:25:51.531Z,98603.56
2024-02-15T08:28:25.677Z,98599.28
2024-02-15T08:30:58.821Z,98595.97
2024-02-15T08:33:31.539Z,98592.03
2024-02-15T08:36:05.169Z,98579.09
2024-02-15T08:38:38.350Z,98577.88
2024-02-15T08:41:14.314Z,98582.38
2024-02-15T08:43:49.580Z,98582.94
2024-02-15T08:46:22.650Z,98570.91
2024-02-15T08:48:54.783Z,98569.13
2024-02-15T08:51:27.485Z,98561.97
2024-02-15T08:54:01.109Z,98568.56
2024-02-15T08:56:35.042Z,98555.72
2024-02-15T08:59:07.053Z,98550.47
2024-02-15T09:01:40.882Z,98548.94
2024-02-15T09:04:12.894Z,98538.34
2024-02-15T09:06:45.492Z,98524.81
2024-02-15T09:09:18.126Z,98534.88
2024-02-15T09:11:50.734Z,98522.56
2024-02-15T09:14:22.738Z,98523.63
2024-02-15T09:16:55.678Z,98528.84
2024-02-15T09:19:28.541Z,98518.38
2024-02-15T09:22:01.046Z,98522.59
2024-02-15T09:24:34.646Z,98522.09
2024-02-15T09:27:07.343Z,98520.84
2024-02-15T09:29:41.377Z,98518.25
2024-02-15T09:32:14.621Z,98515.72
2024-02-15T09:34:46.590Z,98512.25
2024-02-15T09:37:19.117Z,98516.19
2024-02-15T09:39:51.150Z,98506.22
2024-02-15T09:42:25.306Z,98506.53
2024-02-15T09:44:57.283Z,98504.53
2024-02-15T09:47:42.123Z,98511.25
2024-02-15T09:50:17.303Z,98500.78
2024-02-15T09:52:58.105Z,98499.59
2024-02-15T09:55:30.420Z,98501.78
2024-02-15T09:58:02.950Z,98501.25
2024-02-15T10:00:36.179Z,98505.06
2024-02-15T10:03:09.639Z,98501.69
2024-02-15T10:05:42.249Z,98508.38
2024-02-15T10:08:14.814Z,98511.41
2024-02-15T10:10:46.937Z,98513.06
2024-02-15T10:13:25.362Z,98513.69
2024-02-15T10:15:57.329Z,98512.91
2024-02-15T10:18:30.277Z,98513.97
2024-02-15T10:21:02.281Z,98508.53
2024-02-15T10:23:34.810Z,98510.78
2024-02-15T10:26:21.124Z,98510.88
2024-02-15T10:29:11.723Z,98510.81
2024-02-15T10:31:59.984Z,98501.63
2024-02-15T10:34:33.338Z,98502.22
2024-02-15T10:37:13.591Z,98499.84
2024-02-15T10:39:46.232Z,98491.31
2024-02-15T10:42:18.989Z,98494.09
2024-02-15T10:44:54.093Z,98504.00
2024-02-15T10:47:26.749Z,98494.19
2024-02-15T10:49:59.881Z,98484.53
2024-02-15T10:52:36.155Z,98495.03
2024-02-15T10:55:15.024Z,98494.59
2024-02-15T10:57:50.864Z,98488.84
2024-02-15T11:00:27.645Z,98489.22
2024-02-15T11:03:07.356Z,98488.25
2024-02-15T11:05:42.168Z,98490.72
2024-02-15T11:08:14.602Z,98480.06
2024-02-15T11:10:49.020Z,98478.56
2024-02-15T11:13:20.976Z,98471.63
2024-02-15T11:15:54.922Z,98465.56
2024-02-15T11:18:52.810Z,98470.16
2024-02-15T11:21:55.785Z,98459.91
2024-02-15T11:24:29.467Z,98462.34
2024-02-15T11:27:06.762Z,98459.81
2024-02-15T11:30:11.531Z,98458.50
2024-02-15T11:32:49.151Z,98443.56
2024-02-15T11:35:24.586Z,98437.63
2024-02-15T11:38:05.586Z,98428.75
2024-02-15T11:40:42.314Z,98441.09
2024-02-15T11:46:56.565Z,98418.31
2024-02-15T11:49:30.433Z,98429.53
2024-02-15T11:52:11.505Z,98419.28
2024-02-15T11:54:43.945Z,98414.16
2024-02-15T11:57:27.108Z,98413.75
2024-02-15T12:00:34.423Z,98403.81
2024-02-15T12:03:24.867Z,98404.16
2024-02-15T12:06:16.530Z,98397.34
2024-02-15T12:09:09.016Z,98392.94
2024-02-15T12:12:00.562Z,98388.34
2024-02-15T12:14:51.411Z,98375.41
2024-02-15T12:17:43.615Z,98378.53
2024-02-15T12:20:16.705Z,98372.81
2024-02-15T12:22:50.636Z,98368.53
2024-02-15T12:25:23.803Z,98365.34
2024-02-15T12:28:00.969Z,98370.69
2024-02-15T12:30:41.943Z,98376.59
2024-02-15T12:33:21.692Z,98387.59
2024-02-15T12:36:09.689Z,98364.72
2024-02-15T12:38:44.223Z,98371.28
2024-02-15T12:41:23.089Z,98364.75
2024-02-15T12:43:55.676Z,98365.53
2024-02-15T12:46:28.521Z,98362.72
2024-02-15T12:49:18.736Z,98360.78
2024-02-15T12:51:58.553Z,98354.09
2024-02-15T12:54:30.525Z,98347.03
2024-02-15T12:57:14.295Z,98341.13
2024-02-15T12:59:48.968Z,98348.06
2024-02-15T13:02:22.058Z,98335.78
2024-02-15T13:04:59.640Z,98326.59
2024-02-15T13:07:32.042Z,98335.41
2024-02-15T13:10:08.203Z,98331.19
2024-02-15T13:12:40.195Z,98320.97
2024-02-15T13:15:23.134Z,98318.31
2024-02-15T13:17:56.671Z,98316.50
2024-02-15T13:20:36.081Z,98311.66
2024-02-15T13:23:11.076Z,98314.72
2024-02-15T13:25:47.212Z,98303.97
2024-02-15T13:28:19.915Z,98309.81
2024-02-15T13:30:55.781Z,98298.91
2024-02-15T13:33:30.340Z,98302.28
2024-02-15T13:36:03.610Z,98287.41
2024-02-15T13:38:37.937Z,98279.00
2024-02-15T13:41:10.622Z,98278.66
2024-02-15T13:43:42.825Z,98267.31
2024-02-15T13:46:14.873Z,98266.09
2024-02-15T13:48:47.628Z,98266.81
2024-02-15T13:51:20.612Z,98259.34
2024-02-15T13:53:53.160Z,98256.97
2024-02-15T13:56:25.248Z,98242.13
2024-02-15T13:59:01.343Z,98244.78
2024-02-15T14:01:35.433Z,98238.00
2024-02-15T14:04:07.863Z,98239.03
2024-02-15T14:06:41.243Z,98234.06
2024-02-15T14:09:14.322Z,98225.81
2024-02-15T14:11:46.576Z,98215.78
2024-02-15T14:14:18.551Z,98215.00
2024-02-15T14:16:51.001Z,98215.84
2024-02-15T14:19:27.453Z,98209.00
2024-02-15T14:22:00.047Z,98205.91
2024-02-15T14:24:32.008Z,98206.69
2024-02-15T14:27:04.613Z,98196.75
2024-02-15T14:29:38.617Z,98192.19
2024-02-15T14:32:30.501Z,98187.53
2024-02-15T14:35:02.802Z,98188.31
2024-02-15T14:37:34.782Z,98191.34
2024-02-15T14:40:08.526Z,98195.13
2024-02-15T14:42:55.602Z,98185.25
2024-02-15T14:45:30.354Z,98193.72
2024-02-15T14:48:02.657Z,98187.22
2024-02-15T14:50:36.233Z,98195.28
2024-02-15T14:53:10.764Z,98195.63
2024-02-15T14:55:48.052Z,98196.03
2024-02-15T14:58:23.320Z,98186.53
2024-02-15T15:01:00.670Z,98195.34
2024-02-15T15:03:34.249Z,98195.63
2024-02-15T15:06:28.581Z,98210.44
2024-02-15T15:09:19.385Z,98208.09
2024-02-15T15:12:10.588Z,98210.78
2024-02-15T15:14:43.044Z,98206.09
2024-02-15T15:17:17.316Z,98204.16
2024-02-15T15:19:49.348Z,98206.44
2024-02-15T15:22:22.374Z,98201.06
2024-02-15T15:24:54.330Z,98199.88
2024-02-15T15:27:26.926Z,98199.13
2024-02-15T15:29:59.294Z,98203.25
2024-02-15T15:32:31.840Z,98203.19
2024-02-15T15:35:04.371Z,98200.84
2024-02-15T15:37:37.561Z,98202.31
2024-02-15T15:40:09.963Z,98194.25
2024-02-15T15:42:42.455Z,98190.06
2024-02-15T15:45:14.813Z,98202.16
2024-02-15T15:47:47.139Z,98198.25
2024-02-15T15:50:20.810Z,98197.44
2024-02-15T15:52:55.013Z,98195.50
2024-02-15T15:55:27.764Z,98193.56
2024-02-15T15:58:00.780Z,98191.97
2024-02-15T16:00:38.361Z,98191.94
2024-02-15T16:03:11.352Z,98200.25
2024-02-15T16:05:43.396Z,98182.63
2024-02-15T16:08:15.816Z,98175.06
2024-02-15T16:10:48.131Z,98179.22
2024-02-15T16:13:21.224Z,98176.09
2024-02-15T16:15:58.073Z,98184.50
2024-02-15T16:18:30.375Z,98177.63
2024-02-15T16:21:04.292Z,98175.63
2024-02-15T16:23:36.482Z,98178.06
2024-02-15T16:26:08.932Z,98175.63
2024-02-15T16:31:17.325Z,98177.38
2024-02-15T16:33:50.754Z,98187.66
2024-02-15T16:36:24.261Z,98181.00
2024-02-15T16:38:56.496Z,98177.09
2024-02-15T16:41:30.809Z,98180.75
2024-02-15T16:44:03.329Z,98178.53
2024-02-15T16:46:35.364Z,98172.78
2024-02-15T16:49:08.281Z,98170.69
2024-02-15T16:51:40.689Z,98175.19
2024-02-15T16:54:13.419Z,98172.75
2024-02-15T16:56:45.482Z,98189.41
2024-02-15T16:59:18.102Z,98184.78
2024-02-15T17:01:50.099Z,98186.94
2024-02-15T17:04:23.539Z,98194.06
2024-02-15T17:06:56.807Z,98197.06
2024-02-15T17:09:29.791Z,98204.25
2024-02-15T17:12:05.666Z,98199.56
2024-02-15T17:14:39.470Z,98202.50
2024-02-15T17:17:11.612Z,98206.19
2024-02-15T17:19:44.134Z,98214.50
2024-02-15T17:22:16.928Z,98218.41
2024-02-15T17:24:49.390Z,98211.69
2024-02-15T17:27:21.431Z,98215.22
2024-02-15T17:29:53.996Z,98213.56
2024-02-15T17:32:26.448Z,98215.41
2024-02-15T17:34:58.584Z,98214.22
2024-02-15T17:37:31.042Z,98204.34
2024-02-15T17:40:04.225Z,98214.75
2024-02-15T17:42:36.469Z,98206.34
2024-02-15T17:45:14.152Z,98209.91
2024-02-15T17:47:47.703Z,98210.19
2024-02-15T17:50:23.328Z,98213.84
2024-02-15T17:52:55.810Z,98207.72
2024-02-15T17:55:28.228Z,98209.47
2024-02-15T17:58:02.548Z,98210.84
2024-02-15T18:00:37.482Z,98212.06
2024-02-15T18:03:11.831Z,98221.94
2024-02-15T18:05:47.658Z,98212.75
2024-02-15T18:08:21.235Z,98212.38
2024-02-15T18:10:57.405Z,98212.06
2024-02-15T18:13:30.243Z,98207.88
2024-02-15T18:16:02.778Z,98206.59
2024-02-15T18:18:35.401Z,98209.88
2024-02-15T18:21:07.935Z,98202.03
2024-02-15T18:23:44.547Z,98204.78
2024-02-15T18:26:18.358Z,98204.44
2024-02-15T18:28:50.339Z,98205.56
2024-02-15T18:31:23.964Z,98205.56
2024-02-15T18:33:56.787Z,98205.47
2024-02-15T18:36:29.394Z,98198.56
2024-02-15T18:39:02.895Z,98199.16
2024-02-15T18:41:35.332Z,98190.28
2024-02-15T18:44:07.343Z,98177.75
2024-02-15T18:46:42.003Z,98177.34
2024-02-15T18:49:26.349Z,98192.38
2024-02-15T18:52:04.480Z,98192.03
2024-02-15T18:54:42.317Z,98186.13
2024-02-15T18:57:14.407Z,98181.63
2024-02-15T18:59:46.937Z,98177.53
2024-02-15T19:02:21.289Z,98184.34
2024-02-15T19:04:53.851Z,98175.56
2024-02-15T19:07:26.369Z,98183.84
2024-02-15T19:09:58.682Z,98178.88
2024-02-15T19:12:31.245Z,98173.66
2024-02-15T19:15:07.811Z,98177.75
2024-02-15T19:17:41.618Z,98179.88
2024-02-15T19:20:13.960Z,98178.72
2024-02-15T19:22:46.650Z,98166.06
2024-02-15T19:25:20.185Z,98167.53
2024-02-15T19:27:53.361Z,98165.47
2024-02-15T19:30:26.985Z,98174.94
2024-02-15T19:32:59.820Z,98166.31
2024-02-15T19:35:32.393Z,98160.38
2024-02-15T19:38:04.600Z,98159.19
2024-02-15T19:40:40.550Z,98155.44
2024-02-15T19:43:12.964Z,98165.22
2024-02-15T19:45:45.244Z,98162.59
2024-02-15T19:48:18.132Z,98161.97
2024-02-15T19:51:13.317Z,98152.75
2024-02-15T19:53:45.463Z,98154.00
2024-02-15T19:56:20.105Z,98140.09
2024-02-15T19:58:56.259Z,98150.66
2024-02-15T20:01:29.092Z,98151.81
2024-02-15T20:04:02.070Z,98147.88
2024-02-15T20:06:35.567Z,98145.16
2024-02-15T20:09:08.107Z,98153.75
2024-02-15T20:11:40.087Z,98149.47
2024-02-15T20:14:14.975Z,98146.94
2024-02-15T20:16:55.637Z,98150.34
2024-02-15T20:19:28.231Z,98153.63
2024-02-15T20:22:01.539Z,98148.47
2024-02-15T20:24:34.643Z,98145.63
2024-02-15T20:27:07.154Z,98148.16
2024-02-15T20:29:40.628Z,98148.59
2024-02-15T20:32:12.991Z,98151.44
2024-02-15T20:34:47.577Z,98142.03
2024-02-15T20:37:19.561Z,98143.44
2024-02-15T20:39:55.049Z,98140.50
2024-02-15T20:42:28.075Z,98133.47
2024-02-15T20:45:01.515Z,98135.13
2024-02-15T20:47:34.613Z,98127.47
2024-02-15T20:50:14.182Z,98117.44
2024-02-15T20:52:46.300Z,98114.59
2024-02-15T20:55:18.775Z,98103.72
2024-02-15T20:57:50.865Z,98099.31
2024-02-15T21:00:24.044Z,98101.09
2024-02-15T21:02:56.134Z,98099.22
2024-02-15T21:05:30.303Z,98105.81
2024-02-15T21:08:02.658Z,98093.19
2024-02-15T21:10:35.126Z,98094.13
2024-02-15T21:13:08.883Z,98093.44
2024-02-15T21:15:41.345Z,98093.97
2024-02-15T21:18:14.773Z,98095.59
2024-02-15T21:20:47.464Z,98112.53
2024-02-15T21:23:19.543Z,98110.16
2024-02-15T21:25:52.006Z,98111.88
2024-02-15T21:28:23.919Z,98104.22
2024-02-15T21:30:56.938Z,98102.69
2024-02-15T21:33:28.946Z,98095.03
2024-02-15T21:36:01.935Z,98092.41
2024-02-15T21:38:34.189Z,98096.31
2024-02-15T21:41:08.541Z,98106.44
2024-02-15T21:43:42.586Z,98096.94
2024-02-15T21:46:16.619Z,98100.78
2024-02-15T21:48:51.634Z,98104.50
2024-02-15T21:51:24.650Z,98104.22
2024-02-15T21:53:56.815Z,98099.69
2024-02-15T21:56:29.916Z,98100.81
2024-02-15T21:59:01.970Z,98102.03
2024-02-15T22:01:39.994Z,98108.84
2024-02-15T22:04:11.937Z,98114.81
2024-02-15T22:06:48.490Z,98112.38
2024-02-15T22:09:20.749Z,98114.44
2024-02-15T22:11:53.326Z,98115.22
2024-02-15T22:14:26.453Z,98112.13
2024-02-15T22:16:59.160Z,98123.41
2024-02-15T22:19:31.337Z,98126.59
2024-02-15T22:22:04.167Z,98132.50
2024-02-15T22:24:36.130Z,98130.03
2024-02-15T22:27:08.709Z,98133.22
2024-02-15T22:29:40.723Z,98132.06
2024-02-15T22:32:14.013Z,98132.19
2024-02-15T22:34:46.401Z,98126.72
2024-02-15T22:37:19.455Z,98119.06
2024-02-15T22:39:51.467Z,98120.56
2024-02-15T22:42:25.089Z,98112.13
2024-02-15T22:44:57.136Z,98122.03
2024-02-15T22:47:29.647Z,98114.53
2024-02-15T22:50:01.878Z,98121.94
2024-02-15T22:52:34.443Z,98117.47
2024-02-15T22:55:07.110Z,98122.03
2024-02-15T22:57:40.751Z,98110.66
2024-02-15T23:00:14.605Z,98106.47
2024-02-15T23:02:47.446Z,98110.47
2024-02-15T23:05:20.440Z,98111.31
2024-02-15T23:07:53.034Z,98119.53
2024-02-15T23:10:25.426Z,98124.03
2024-02-15T23:12:58.040Z,98122.03
2024-02-15T23:15:34.209Z,98110.09
2024-02-15T23:18:07.189Z,98119.41
2024-02-15T23:20:39.744Z,98115.53
2024-02-15T23:23:14.339Z,98114.91
2024-02-15T23:25:46.946Z,98117.59
2024-02-15T23:28:19.442Z,98123.81
2024-02-15T23:30:51.848Z,98130.25
2024-02-15T23:33:24.458Z,98125.16
2024-02-15T23:36:15.629Z,98135.13
2024-02-15T23:39:06.578Z,98123.53
2024-02-15T23:41:38.637Z,98130.38
2024-02-15T23:44:11.898Z,98129.00
2024-02-15T23:46:45.014Z,98138.91
2024-02-15T23:49:17.988Z,98138.78
2024-02-15T23:51:50.156Z,98134.72
2024-02-15T23:54:22.781Z,98131.09
2024-02-15T23:56:55.716Z,98123.19
2024-02-15T23:59:29.084Z,98116.13
